sensor_id;sensor_type;location;lat;lon;timestamp;P1;durP1;ratioP1;P2;durP2;ratioP2
4569;SDS011;2297;51.442;6.996;2023-05-10T00:02:06;7.60;;;5.22;;
4569;SDS011;2297;51.442;6.996;2023-05-10T00:04:33;9.18;;;5.45;;
4569;SDS011;2297;51.442;6.996;2023-05-10T00:07:07;7.72;;;5.53;;
4569;SDS011;2297;51.442;6.996;2023-05-10T00:09:35;9.30;;;6.00;;
4569;SDS011;2297;51.442;6.996;2023-05-10T00:12:01;8.70;;;6.22;;
4569;SDS011;2297;51.442;6.996;2023-05-10T00:14:28;10.82;;;5.80;;
4569;SDS011;2297;51.442;6.996;2023-05-10T00:16:55;9.65;;;6.68;;
4569;SDS011;2297;51.442;6.996;2023-05-10T00:19:22;10.13;;;6.85;;
4569;SDS011;2297;51.442;6.996;2023-05-10T00:21:48;9.85;;;6.85;;
4569;SDS011;2297;51.442;6.996;2023-05-10T00:24:16;8.98;;;6.45;;
4569;SDS011;2297;51.442;6.996;2023-05-10T00:26:43;10.70;;;7.40;;
4569;SDS011;2297;51.442;6.996;2023-05-10T00:29:09;9.75;;;6.53;;
4569;SDS011;2297;51.442;6.996;2023-05-10T00:31:36;11.05;;;7.35;;
4569;SDS011;2297;51.442;6.996;2023-05-10T00:34:03;11.18;;;7.30;;
4569;SDS011;2297;51.442;6.996;2023-05-10T00:36:29;10.73;;;7.70;;
4569;SDS011;2297;51.442;6.996;2023-05-10T00:38:56;11.48;;;7.47;;
4569;SDS011;2297;51.442;6.996;2023-05-10T00:41:24;11.80;;;8.02;;
4569;SDS011;2297;51.442;6.996;2023-05-10T00:43:50;13.68;;;7.88;;
4569;SDS011;2297;51.442;6.996;2023-05-10T00:46:17;12.48;;;7.95;;
4569;SDS011;2297;51.442;6.996;2023-05-10T00:48:44;14.18;;;9.07;;
4569;SDS011;2297;51.442;6.996;2023-05-10T00:51:11;15.07;;;9.98;;
4569;SDS011;2297;51.442;6.996;2023-05-10T00:53:37;15.63;;;9.73;;
4569;SDS011;2297;51.442;6.996;2023-05-10T00:56:04;14.65;;;10.00;;
4569;SDS011;2297;51.442;6.996;2023-05-10T00:58:32;15.30;;;10.45;;
4569;SDS011;2297;51.442;6.996;2023-05-10T01:00:59;18.17;;;11.05;;
4569;SDS011;2297;51.442;6.996;2023-05-10T01:03:27;17.77;;;11.90;;
4569;SDS011;2297;51.442;6.996;2023-05-10T01:05:54;18.83;;;10.35;;
4569;SDS011;2297;51.442;6.996;2023-05-10T01:08:21;16.90;;;10.55;;
4569;SDS011;2297;51.442;6.996;2023-05-10T01:10:47;19.60;;;11.35;;
4569;SDS011;2297;51.442;6.996;2023-05-10T01:13:16;17.40;;;11.45;;
4569;SDS011;2297;51.442;6.996;2023-05-10T01:15:53;14.55;;;9.15;;
4569;SDS011;2297;51.442;6.996;2023-05-10T01:18:20;15.95;;;10.23;;
4569;SDS011;2297;51.442;6.996;2023-05-10T01:20:48;17.67;;;10.63;;
4569;SDS011;2297;51.442;6.996;2023-05-10T01:23:31;17.00;;;10.95;;
4569;SDS011;2297;51.442;6.996;2023-05-10T01:26:18;18.55;;;9.80;;
4569;SDS011;2297;51.442;6.996;2023-05-10T01:29:14;16.98;;;10.60;;
4569;SDS011;2297;51.442;6.996;2023-05-10T01:34:48;18.60;;;10.40;;
4569;SDS011;2297;51.442;6.996;2023-05-10T01:37:25;21.02;;;10.52;;
4569;SDS011;2297;51.442;6.996;2023-05-10T01:39:58;23.55;;;12.55;;
4569;SDS011;2297;51.442;6.996;2023-05-10T01:42:30;22.88;;;12.88;;
4569;SDS011;2297;51.442;6.996;2023-05-10T01:45:05;23.65;;;13.68;;
4569;SDS011;2297;51.442;6.996;2023-05-10T01:47:42;23.65;;;12.18;;
4569;SDS011;2297;51.442;6.996;2023-05-10T01:50:15;19.83;;;10.70;;
4569;SDS011;2297;51.442;6.996;2023-05-10T01:52:44;20.73;;;11.60;;
4569;SDS011;2297;51.442;6.996;2023-05-10T01:55:18;18.52;;;11.20;;
4569;SDS011;2297;51.442;6.996;2023-05-10T01:57:47;21.52;;;10.80;;
4569;SDS011;2297;51.442;6.996;2023-05-10T02:00:20;23.80;;;12.30;;
4569;SDS011;2297;51.442;6.996;2023-05-10T02:02:50;23.70;;;11.93;;
4569;SDS011;2297;51.442;6.996;2023-05-10T02:05:18;22.73;;;12.20;;
4569;SDS011;2297;51.442;6.996;2023-05-10T02:07:47;22.88;;;11.98;;
4569;SDS011;2297;51.442;6.996;2023-05-10T02:10:15;20.58;;;12.80;;
4569;SDS011;2297;51.442;6.996;2023-05-10T02:12:43;23.25;;;12.73;;
4569;SDS011;2297;51.442;6.996;2023-05-10T02:15:12;20.90;;;12.30;;
4569;SDS011;2297;51.442;6.996;2023-05-10T02:17:43;21.15;;;12.55;;
4569;SDS011;2297;51.442;6.996;2023-05-10T02:20:13;21.00;;;12.63;;
4569;SDS011;2297;51.442;6.996;2023-05-10T02:22:42;22.88;;;12.75;;
4569;SDS011;2297;51.442;6.996;2023-05-10T02:25:11;23.27;;;12.73;;
4569;SDS011;2297;51.442;6.996;2023-05-10T02:27:40;20.63;;;12.30;;
4569;SDS011;2297;51.442;6.996;2023-05-10T02:30:09;20.92;;;12.35;;
4569;SDS011;2297;51.442;6.996;2023-05-10T02:32:37;19.63;;;12.05;;
4569;SDS011;2297;51.442;6.996;2023-05-10T02:35:05;18.92;;;11.90;;
4569;SDS011;2297;51.442;6.996;2023-05-10T02:37:34;16.08;;;9.18;;
4569;SDS011;2297;51.442;6.996;2023-05-10T02:40:03;17.42;;;10.07;;
4569;SDS011;2297;51.442;6.996;2023-05-10T02:42:32;17.75;;;9.98;;
4569;SDS011;2297;51.442;6.996;2023-05-10T02:45:02;16.58;;;9.90;;
4569;SDS011;2297;51.442;6.996;2023-05-10T02:47:31;17.95;;;11.02;;
4569;SDS011;2297;51.442;6.996;2023-05-10T02:49:58;18.15;;;9.93;;
4569;SDS011;2297;51.442;6.996;2023-05-10T02:52:27;17.42;;;10.43;;
4569;SDS011;2297;51.442;6.996;2023-05-10T02:54:58;22.95;;;12.30;;
4569;SDS011;2297;51.442;6.996;2023-05-10T02:57:29;22.52;;;11.43;;
4569;SDS011;2297;51.442;6.996;2023-05-10T02:59:59;21.50;;;11.60;;
4569;SDS011;2297;51.442;6.996;2023-05-10T03:02:27;21.08;;;12.38;;
4569;SDS011;2297;51.442;6.996;2023-05-10T03:04:55;20.13;;;12.20;;
4569;SDS011;2297;51.442;6.996;2023-05-10T03:07:22;19.92;;;12.45;;
4569;SDS011;2297;51.442;6.996;2023-05-10T03:09:49;19.80;;;12.25;;
4569;SDS011;2297;51.442;6.996;2023-05-10T03:12:19;18.38;;;11.10;;
4569;SDS011;2297;51.442;6.996;2023-05-10T03:14:54;17.35;;;10.95;;
4569;SDS011;2297;51.442;6.996;2023-05-10T03:17:29;16.73;;;10.60;;
4569;SDS011;2297;51.442;6.996;2023-05-10T03:19:57;16.05;;;9.27;;
4569;SDS011;2297;51.442;6.996;2023-05-10T03:22:30;15.50;;;9.85;;
4569;SDS011;2297;51.442;6.996;2023-05-10T03:25:00;17.75;;;10.30;;
4569;SDS011;2297;51.442;6.996;2023-05-10T03:27:33;18.48;;;10.55;;
4569;SDS011;2297;51.442;6.996;2023-05-10T03:30:01;18.85;;;10.70;;
4569;SDS011;2297;51.442;6.996;2023-05-10T03:32:28;18.40;;;9.73;;
4569;SDS011;2297;51.442;6.996;2023-05-10T03:34:56;17.55;;;9.80;;
4569;SDS011;2297;51.442;6.996;2023-05-10T03:37:23;16.65;;;10.35;;
4569;SDS011;2297;51.442;6.996;2023-05-10T03:39:50;17.60;;;10.55;;
4569;SDS011;2297;51.442;6.996;2023-05-10T03:42:16;18.23;;;10.00;;
4569;SDS011;2297;51.442;6.996;2023-05-10T03:44:44;17.75;;;10.98;;
4569;SDS011;2297;51.442;6.996;2023-05-10T03:47:11;19.27;;;11.85;;
4569;SDS011;2297;51.442;6.996;2023-05-10T03:49:38;19.85;;;11.32;;
4569;SDS011;2297;51.442;6.996;2023-05-10T03:52:04;19.90;;;12.15;;
4569;SDS011;2297;51.442;6.996;2023-05-10T03:54:31;19.65;;;11.82;;
4569;SDS011;2297;51.442;6.996;2023-05-10T03:56:58;19.90;;;11.35;;
4569;SDS011;2297;51.442;6.996;2023-05-10T03:59:25;21.05;;;12.25;;
4569;SDS011;2297;51.442;6.996;2023-05-10T04:01:53;23.00;;;13.05;;
4569;SDS011;2297;51.442;6.996;2023-05-10T04:04:20;24.00;;;12.15;;
4569;SDS011;2297;51.442;6.996;2023-05-10T04:06:48;22.42;;;12.93;;
4569;SDS011;2297;51.442;6.996;2023-05-10T04:09:15;27.67;;;14.57;;
4569;SDS011;2297;51.442;6.996;2023-05-10T04:11:42;26.67;;;14.25;;
4569;SDS011;2297;51.442;6.996;2023-05-10T04:14:08;24.33;;;14.10;;
4569;SDS011;2297;51.442;6.996;2023-05-10T04:16:35;27.33;;;14.13;;
4569;SDS011;2297;51.442;6.996;2023-05-10T04:19:03;27.10;;;14.15;;
4569;SDS011;2297;51.442;6.996;2023-05-10T04:21:30;25.88;;;15.48;;
4569;SDS011;2297;51.442;6.996;2023-05-10T04:23:56;27.23;;;14.98;;
4569;SDS011;2297;51.442;6.996;2023-05-10T04:26:23;29.20;;;16.08;;
4569;SDS011;2297;51.442;6.996;2023-05-10T04:28:50;29.25;;;15.80;;
4569;SDS011;2297;51.442;6.996;2023-05-10T04:31:16;30.20;;;16.90;;
4569;SDS011;2297;51.442;6.996;2023-05-10T04:33:43;31.75;;;16.73;;
4569;SDS011;2297;51.442;6.996;2023-05-10T04:36:11;29.60;;;16.65;;
4569;SDS011;2297;51.442;6.996;2023-05-10T04:38:37;29.70;;;16.83;;
4569;SDS011;2297;51.442;6.996;2023-05-10T04:41:04;32.10;;;17.45;;
4569;SDS011;2297;51.442;6.996;2023-05-10T04:43:32;32.55;;;17.48;;
4569;SDS011;2297;51.442;6.996;2023-05-10T04:45:59;28.70;;;17.13;;
4569;SDS011;2297;51.442;6.996;2023-05-10T04:48:26;31.20;;;17.70;;
4569;SDS011;2297;51.442;6.996;2023-05-10T04:50:52;34.40;;;18.33;;
4569;SDS011;2297;51.442;6.996;2023-05-10T04:53:20;31.30;;;16.98;;
4569;SDS011;2297;51.442;6.996;2023-05-10T04:55:47;34.60;;;18.33;;
4569;SDS011;2297;51.442;6.996;2023-05-10T04:58:14;37.30;;;18.95;;
4569;SDS011;2297;51.442;6.996;2023-05-10T05:00:41;30.63;;;17.20;;
4569;SDS011;2297;51.442;6.996;2023-05-10T05:03:07;29.48;;;16.38;;
4569;SDS011;2297;51.442;6.996;2023-05-10T05:05:34;31.17;;;17.92;;
4569;SDS011;2297;51.442;6.996;2023-05-10T05:08:01;31.48;;;18.63;;
4569;SDS011;2297;51.442;6.996;2023-05-10T05:10:29;36.58;;;19.25;;
4569;SDS011;2297;51.442;6.996;2023-05-10T05:12:56;35.42;;;19.10;;
4569;SDS011;2297;51.442;6.996;2023-05-10T05:15:22;34.17;;;18.98;;
4569;SDS011;2297;51.442;6.996;2023-05-10T05:17:49;30.00;;;17.30;;
4569;SDS011;2297;51.442;6.996;2023-05-10T05:20:15;35.03;;;19.08;;
4569;SDS011;2297;51.442;6.996;2023-05-10T05:22:44;34.88;;;18.52;;
4569;SDS011;2297;51.442;6.996;2023-05-10T05:25:10;36.15;;;20.23;;
4569;SDS011;2297;51.442;6.996;2023-05-10T05:27:39;34.13;;;18.33;;
4569;SDS011;2297;51.442;6.996;2023-05-10T05:30:07;29.58;;;17.35;;
4569;SDS011;2297;51.442;6.996;2023-05-10T05:32:34;37.28;;;18.75;;
4569;SDS011;2297;51.442;6.996;2023-05-10T05:35:01;36.13;;;19.08;;
4569;SDS011;2297;51.442;6.996;2023-05-10T05:37:27;36.75;;;18.92;;
4569;SDS011;2297;51.442;6.996;2023-05-10T05:39:54;36.85;;;18.23;;
4569;SDS011;2297;51.442;6.996;2023-05-10T05:42:21;33.97;;;18.48;;
4569;SDS011;2297;51.442;6.996;2023-05-10T05:44:49;33.83;;;19.05;;
4569;SDS011;2297;51.442;6.996;2023-05-10T05:47:15;34.10;;;18.73;;
4569;SDS011;2297;51.442;6.996;2023-05-10T05:49:42;35.58;;;19.05;;
4569;SDS011;2297;51.442;6.996;2023-05-10T05:52:10;31.70;;;17.60;;
4569;SDS011;2297;51.442;6.996;2023-05-10T05:54:37;32.03;;;17.52;;
4569;SDS011;2297;51.442;6.996;2023-05-10T05:57:04;36.42;;;18.83;;
4569;SDS011;2297;51.442;6.996;2023-05-10T06:02:54;31.20;;;17.25;;
4569;SDS011;2297;51.442;6.996;2023-05-10T06:05:20;36.95;;;18.67;;
4569;SDS011;2297;51.442;6.996;2023-05-10T06:07:47;32.92;;;17.90;;
4569;SDS011;2297;51.442;6.996;2023-05-10T06:10:14;30.70;;;17.17;;
4569;SDS011;2297;51.442;6.996;2023-05-10T06:12:40;33.20;;;17.55;;
4569;SDS011;2297;51.442;6.996;2023-05-10T06:15:07;37.35;;;18.73;;
4569;SDS011;2297;51.442;6.996;2023-05-10T06:17:35;34.00;;;18.92;;
4569;SDS011;2297;51.442;6.996;2023-05-10T06:20:03;34.47;;;17.70;;
4569;SDS011;2297;51.442;6.996;2023-05-10T06:22:31;38.20;;;18.23;;
4569;SDS011;2297;51.442;6.996;2023-05-10T06:24:57;32.63;;;18.75;;
4569;SDS011;2297;51.442;6.996;2023-05-10T06:27:24;38.90;;;19.08;;
4569;SDS011;2297;51.442;6.996;2023-05-10T06:29:50;38.58;;;18.98;;
4569;SDS011;2297;51.442;6.996;2023-05-10T06:32:17;41.67;;;18.80;;
4569;SDS011;2297;51.442;6.996;2023-05-10T06:34:44;36.97;;;19.48;;
4569;SDS011;2297;51.442;6.996;2023-05-10T06:37:12;38.97;;;18.80;;
4569;SDS011;2297;51.442;6.996;2023-05-10T06:39:39;39.72;;;19.80;;
4569;SDS011;2297;51.442;6.996;2023-05-10T06:42:05;41.47;;;19.65;;
4569;SDS011;2297;51.442;6.996;2023-05-10T06:44:32;38.80;;;18.73;;
4569;SDS011;2297;51.442;6.996;2023-05-10T06:46:59;40.17;;;18.40;;
4569;SDS011;2297;51.442;6.996;2023-05-10T06:49:25;48.42;;;20.63;;
4569;SDS011;2297;51.442;6.996;2023-05-10T06:51:52;46.15;;;21.45;;
4569;SDS011;2297;51.442;6.996;2023-05-10T06:54:20;48.28;;;21.45;;
4569;SDS011;2297;51.442;6.996;2023-05-10T06:56:48;44.28;;;20.73;;
4569;SDS011;2297;51.442;6.996;2023-05-10T06:59:14;49.50;;;21.35;;
4569;SDS011;2297;51.442;6.996;2023-05-10T07:04:45;46.03;;;19.60;;
4569;SDS011;2297;51.442;6.996;2023-05-10T07:07:13;45.03;;;21.00;;
4569;SDS011;2297;51.442;6.996;2023-05-10T07:09:41;48.15;;;22.40;;
4569;SDS011;2297;51.442;6.996;2023-05-10T07:12:08;43.08;;;20.73;;
4569;SDS011;2297;51.442;6.996;2023-05-10T07:14:34;46.22;;;21.52;;
4569;SDS011;2297;51.442;6.996;2023-05-10T07:17:01;42.42;;;19.98;;
4569;SDS011;2297;51.442;6.996;2023-05-10T07:19:28;46.05;;;21.75;;
4569;SDS011;2297;51.442;6.996;2023-05-10T07:25:06;41.75;;;19.55;;
4569;SDS011;2297;51.442;6.996;2023-05-10T07:27:33;42.97;;;19.70;;
4569;SDS011;2297;51.442;6.996;2023-05-10T07:29:59;43.67;;;20.80;;
4569;SDS011;2297;51.442;6.996;2023-05-10T07:32:26;40.47;;;20.95;;
4569;SDS011;2297;51.442;6.996;2023-05-10T07:34:53;42.50;;;19.80;;
4569;SDS011;2297;51.442;6.996;2023-05-10T07:37:19;45.72;;;21.60;;
4569;SDS011;2297;51.442;6.996;2023-05-10T07:42:39;44.03;;;20.35;;
4569;SDS011;2297;51.442;6.996;2023-05-10T07:45:06;40.35;;;19.98;;
4569;SDS011;2297;51.442;6.996;2023-05-10T07:47:33;45.15;;;20.05;;
4569;SDS011;2297;51.442;6.996;2023-05-10T07:50:00;40.42;;;20.13;;
4569;SDS011;2297;51.442;6.996;2023-05-10T07:52:26;38.30;;;18.70;;
4569;SDS011;2297;51.442;6.996;2023-05-10T07:54:53;46.45;;;19.42;;
4569;SDS011;2297;51.442;6.996;2023-05-10T07:57:23;41.22;;;18.90;;
4569;SDS011;2297;51.442;6.996;2023-05-10T07:59:49;37.28;;;19.42;;
4569;SDS011;2297;51.442;6.996;2023-05-10T08:02:16;40.83;;;20.48;;
4569;SDS011;2297;51.442;6.996;2023-05-10T08:04:43;38.50;;;19.55;;
4569;SDS011;2297;51.442;6.996;2023-05-10T08:07:09;41.83;;;20.08;;
4569;SDS011;2297;51.442;6.996;2023-05-10T08:09:36;47.83;;;21.42;;
4569;SDS011;2297;51.442;6.996;2023-05-10T08:12:03;36.53;;;17.80;;
4569;SDS011;2297;51.442;6.996;2023-05-10T08:14:31;38.67;;;17.55;;
4569;SDS011;2297;51.442;6.996;2023-05-10T08:16:58;35.38;;;16.65;;
4569;SDS011;2297;51.442;6.996;2023-05-10T08:19:25;30.73;;;14.77;;
4569;SDS011;2297;51.442;6.996;2023-05-10T08:21:51;32.92;;;15.95;;
4569;SDS011;2297;51.442;6.996;2023-05-10T08:24:18;27.58;;;14.10;;
4569;SDS011;2297;51.442;6.996;2023-05-10T08:26:45;35.33;;;16.10;;
4569;SDS011;2297;51.442;6.996;2023-05-10T08:29:12;28.13;;;14.15;;
4569;SDS011;2297;51.442;6.996;2023-05-10T08:31:40;35.13;;;17.75;;
4569;SDS011;2297;51.442;6.996;2023-05-10T08:34:07;33.25;;;16.73;;
4569;SDS011;2297;51.442;6.996;2023-05-10T08:36:34;35.97;;;17.27;;
4569;SDS011;2297;51.442;6.996;2023-05-10T08:39:01;35.83;;;17.65;;
4569;SDS011;2297;51.442;6.996;2023-05-10T08:41:28;38.63;;;19.95;;
4569;SDS011;2297;51.442;6.996;2023-05-10T08:43:55;36.30;;;18.88;;
4569;SDS011;2297;51.442;6.996;2023-05-10T08:46:22;33.10;;;18.50;;
4569;SDS011;2297;51.442;6.996;2023-05-10T08:49:09;28.17;;;15.63;;
4569;SDS011;2297;51.442;6.996;2023-05-10T08:51:40;31.92;;;15.38;;
4569;SDS011;2297;51.442;6.996;2023-05-10T08:54:08;34.67;;;14.02;;
4569;SDS011;2297;51.442;6.996;2023-05-10T08:56:35;28.75;;;13.43;;
4569;SDS011;2297;51.442;6.996;2023-05-10T08:59:02;28.00;;;14.23;;
4569;SDS011;2297;51.442;6.996;2023-05-10T09:01:29;27.10;;;13.52;;
4569;SDS011;2297;51.442;6.996;2023-05-10T09:03:57;25.92;;;14.23;;
4569;SDS011;2297;51.442;6.996;2023-05-10T09:06:26;28.83;;;15.15;;
4569;SDS011;2297;51.442;6.996;2023-05-10T09:08:53;32.67;;;14.90;;
4569;SDS011;2297;51.442;6.996;2023-05-10T09:11:20;39.63;;;16.02;;
4569;SDS011;2297;51.442;6.996;2023-05-10T09:13:48;35.72;;;17.30;;
4569;SDS011;2297;51.442;6.996;2023-05-10T09:16:16;32.55;;;15.45;;
4569;SDS011;2297;51.442;6.996;2023-05-10T09:18:43;34.92;;;16.88;;
4569;SDS011;2297;51.442;6.996;2023-05-10T09:21:10;31.88;;;16.85;;
4569;SDS011;2297;51.442;6.996;2023-05-10T09:23:38;35.17;;;17.20;;
4569;SDS011;2297;51.442;6.996;2023-05-10T09:26:09;39.22;;;18.50;;
4569;SDS011;2297;51.442;6.996;2023-05-10T09:28:50;37.25;;;18.92;;
4569;SDS011;2297;51.442;6.996;2023-05-10T09:31:17;39.17;;;18.73;;
4569;SDS011;2297;51.442;6.996;2023-05-10T09:33:45;40.20;;;18.92;;
4569;SDS011;2297;51.442;6.996;2023-05-10T09:36:12;35.20;;;17.92;;
4569;SDS011;2297;51.442;6.996;2023-05-10T09:38:47;39.08;;;19.45;;
4569;SDS011;2297;51.442;6.996;2023-05-10T09:41:17;39.03;;;17.58;;
4569;SDS011;2297;51.442;6.996;2023-05-10T09:43:45;35.35;;;17.00;;
4569;SDS011;2297;51.442;6.996;2023-05-10T09:46:12;34.65;;;17.15;;
4569;SDS011;2297;51.442;6.996;2023-05-10T09:48:40;35.33;;;17.02;;
4569;SDS011;2297;51.442;6.996;2023-05-10T09:51:08;33.20;;;16.98;;
4569;SDS011;2297;51.442;6.996;2023-05-10T09:53:35;37.05;;;17.70;;
4569;SDS011;2297;51.442;6.996;2023-05-10T09:56:03;39.28;;;17.67;;
4569;SDS011;2297;51.442;6.996;2023-05-10T09:58:30;34.63;;;15.68;;
4569;SDS011;2297;51.442;6.996;2023-05-10T10:00:56;30.33;;;16.13;;
4569;SDS011;2297;51.442;6.996;2023-05-10T10:03:23;32.15;;;15.52;;
4569;SDS011;2297;51.442;6.996;2023-05-10T10:05:50;31.10;;;15.63;;
4569;SDS011;2297;51.442;6.996;2023-05-10T10:08:18;28.58;;;14.43;;
4569;SDS011;2297;51.442;6.996;2023-05-10T10:10:45;26.13;;;13.20;;
4569;SDS011;2297;51.442;6.996;2023-05-10T10:13:14;24.80;;;13.02;;
4569;SDS011;2297;51.442;6.996;2023-05-10T10:15:42;28.40;;;13.27;;
4569;SDS011;2297;51.442;6.996;2023-05-10T10:18:11;26.85;;;14.02;;
4569;SDS011;2297;51.442;6.996;2023-05-10T10:20:39;23.40;;;11.73;;
4569;SDS011;2297;51.442;6.996;2023-05-10T10:23:06;24.63;;;13.82;;
4569;SDS011;2297;51.442;6.996;2023-05-10T10:25:34;21.88;;;12.80;;
4569;SDS011;2297;51.442;6.996;2023-05-10T10:28:05;22.42;;;12.57;;
4569;SDS011;2297;51.442;6.996;2023-05-10T10:30:45;21.48;;;12.75;;
4569;SDS011;2297;51.442;6.996;2023-05-10T10:33:18;22.63;;;12.32;;
4569;SDS011;2297;51.442;6.996;2023-05-10T10:36:00;24.95;;;12.75;;
4569;SDS011;2297;51.442;6.996;2023-05-10T10:38:35;25.08;;;12.73;;
4569;SDS011;2297;51.442;6.996;2023-05-10T10:41:10;25.20;;;14.02;;
4569;SDS011;2297;51.442;6.996;2023-05-10T10:47:05;23.63;;;13.02;;
4569;SDS011;2297;51.442;6.996;2023-05-10T10:49:42;23.98;;;14.20;;
4569;SDS011;2297;51.442;6.996;2023-05-10T10:52:14;23.60;;;13.02;;
4569;SDS011;2297;51.442;6.996;2023-05-10T10:54:51;21.85;;;11.73;;
4569;SDS011;2297;51.442;6.996;2023-05-10T10:57:18;21.88;;;11.70;;
4569;SDS011;2297;51.442;6.996;2023-05-10T10:59:46;21.42;;;11.88;;
4569;SDS011;2297;51.442;6.996;2023-05-10T11:08:06;23.05;;;10.93;;
4569;SDS011;2297;51.442;6.996;2023-05-10T11:10:35;17.98;;;10.30;;
4569;SDS011;2297;51.442;6.996;2023-05-10T11:13:03;21.05;;;11.48;;
4569;SDS011;2297;51.442;6.996;2023-05-10T11:15:30;19.35;;;11.27;;
4569;SDS011;2297;51.442;6.996;2023-05-10T11:17:57;28.13;;;11.90;;
4569;SDS011;2297;51.442;6.996;2023-05-10T11:20:26;22.20;;;11.70;;
4569;SDS011;2297;51.442;6.996;2023-05-10T11:23:10;24.33;;;12.82;;
4569;SDS011;2297;51.442;6.996;2023-05-10T11:25:41;22.90;;;12.48;;
4569;SDS011;2297;51.442;6.996;2023-05-10T11:28:09;19.20;;;11.45;;
4569;SDS011;2297;51.442;6.996;2023-05-10T11:30:36;23.10;;;12.32;;
4569;SDS011;2297;51.442;6.996;2023-05-10T11:33:02;21.67;;;12.48;;
4569;SDS011;2297;51.442;6.996;2023-05-10T11:35:29;22.02;;;11.80;;
4569;SDS011;2297;51.442;6.996;2023-05-10T11:37:56;22.75;;;12.20;;
4569;SDS011;2297;51.442;6.996;2023-05-10T11:40:24;22.58;;;12.85;;
4569;SDS011;2297;51.442;6.996;2023-05-10T11:42:51;22.10;;;13.55;;
4569;SDS011;2297;51.442;6.996;2023-05-10T11:45:18;24.10;;;13.07;;
4569;SDS011;2297;51.442;6.996;2023-05-10T11:47:44;27.38;;;14.13;;
4569;SDS011;2297;51.442;6.996;2023-05-10T11:50:15;27.25;;;12.65;;
4569;SDS011;2297;51.442;6.996;2023-05-10T11:52:41;20.98;;;11.55;;
4569;SDS011;2297;51.442;6.996;2023-05-10T11:55:08;21.20;;;11.90;;
4569;SDS011;2297;51.442;6.996;2023-05-10T11:57:36;24.60;;;12.98;;
4569;SDS011;2297;51.442;6.996;2023-05-10T12:00:06;17.27;;;11.32;;
4569;SDS011;2297;51.442;6.996;2023-05-10T12:02:33;20.65;;;12.07;;
4569;SDS011;2297;51.442;6.996;2023-05-10T12:05:00;23.48;;;12.38;;
4569;SDS011;2297;51.442;6.996;2023-05-10T12:07:28;19.67;;;11.20;;
4569;SDS011;2297;51.442;6.996;2023-05-10T12:10:05;21.88;;;11.95;;
4569;SDS011;2297;51.442;6.996;2023-05-10T12:12:38;19.67;;;10.98;;
4569;SDS011;2297;51.442;6.996;2023-05-10T12:15:10;15.73;;;10.27;;
4569;SDS011;2297;51.442;6.996;2023-05-10T12:17:38;16.50;;;9.82;;
4569;SDS011;2297;51.442;6.996;2023-05-10T12:20:18;14.68;;;9.43;;
4569;SDS011;2297;51.442;6.996;2023-05-10T12:22:46;19.38;;;10.88;;
4569;SDS011;2297;51.442;6.996;2023-05-10T12:25:15;16.85;;;9.65;;
4569;SDS011;2297;51.442;6.996;2023-05-10T12:27:48;15.02;;;10.38;;
4569;SDS011;2297;51.442;6.996;2023-05-10T12:30:20;17.48;;;10.45;;
4569;SDS011;2297;51.442;6.996;2023-05-10T12:32:47;14.48;;;9.27;;
4569;SDS011;2297;51.442;6.996;2023-05-10T12:35:14;12.57;;;7.97;;
4569;SDS011;2297;51.442;6.996;2023-05-10T12:37:41;15.93;;;8.50;;
4569;SDS011;2297;51.442;6.996;2023-05-10T12:40:09;14.30;;;7.53;;
4569;SDS011;2297;51.442;6.996;2023-05-10T12:42:37;9.75;;;6.93;;
4569;SDS011;2297;51.442;6.996;2023-05-10T12:45:07;12.45;;;8.13;;
4569;SDS011;2297;51.442;6.996;2023-05-10T12:47:34;12.38;;;7.18;;
4569;SDS011;2297;51.442;6.996;2023-05-10T12:50:01;8.77;;;5.57;;
4569;SDS011;2297;51.442;6.996;2023-05-10T12:52:29;12.23;;;5.88;;
4569;SDS011;2297;51.442;6.996;2023-05-10T12:54:57;9.88;;;5.38;;
4569;SDS011;2297;51.442;6.996;2023-05-10T12:57:23;9.63;;;5.75;;
4569;SDS011;2297;51.442;6.996;2023-05-10T12:59:50;8.45;;;5.32;;
4569;SDS011;2297;51.442;6.996;2023-05-10T13:02:18;8.00;;;5.07;;
4569;SDS011;2297;51.442;6.996;2023-05-10T13:04:46;8.60;;;5.50;;
4569;SDS011;2297;51.442;6.996;2023-05-10T13:07:12;8.35;;;5.25;;
4569;SDS011;2297;51.442;6.996;2023-05-10T13:09:39;11.30;;;5.50;;
4569;SDS011;2297;51.442;6.996;2023-05-10T13:12:06;20.73;;;5.28;;
4569;SDS011;2297;51.442;6.996;2023-05-10T13:14:33;8.65;;;5.38;;
4569;SDS011;2297;51.442;6.996;2023-05-10T13:17:00;7.03;;;5.38;;
4569;SDS011;2297;51.442;6.996;2023-05-10T13:19:28;8.50;;;5.15;;
4569;SDS011;2297;51.442;6.996;2023-05-10T13:21:54;8.30;;;5.03;;
4569;SDS011;2297;51.442;6.996;2023-05-10T13:24:21;7.47;;;5.25;;
4569;SDS011;2297;51.442;6.996;2023-05-10T13:26:47;8.95;;;5.63;;
4569;SDS011;2297;51.442;6.996;2023-05-10T13:29:14;7.32;;;5.03;;
4569;SDS011;2297;51.442;6.996;2023-05-10T13:31:43;9.77;;;5.70;;
4569;SDS011;2297;51.442;6.996;2023-05-10T13:34:09;9.85;;;4.93;;
4569;SDS011;2297;51.442;6.996;2023-05-10T13:36:37;7.30;;;5.15;;
4569;SDS011;2297;51.442;6.996;2023-05-10T13:39:04;8.05;;;5.60;;
4569;SDS011;2297;51.442;6.996;2023-05-10T13:41:31;8.43;;;5.13;;
4569;SDS011;2297;51.442;6.996;2023-05-10T13:43:58;8.95;;;5.82;;
4569;SDS011;2297;51.442;6.996;2023-05-10T13:46:24;7.55;;;5.38;;
4569;SDS011;2297;51.442;6.996;2023-05-10T13:48:51;8.55;;;5.32;;
4569;SDS011;2297;51.442;6.996;2023-05-10T13:51:17;7.70;;;5.78;;
4569;SDS011;2297;51.442;6.996;2023-05-10T13:53:45;9.82;;;6.15;;
4569;SDS011;2297;51.442;6.996;2023-05-10T13:56:13;8.95;;;5.95;;
4569;SDS011;2297;51.442;6.996;2023-05-10T13:58:39;8.65;;;5.60;;
4569;SDS011;2297;51.442;6.996;2023-05-10T14:01:06;10.98;;;6.20;;
4569;SDS011;2297;51.442;6.996;2023-05-10T14:03:33;7.53;;;4.80;;
4569;SDS011;2297;51.442;6.996;2023-05-10T14:05:59;7.47;;;5.30;;
4569;SDS011;2297;51.442;6.996;2023-05-10T14:08:26;7.20;;;5.00;;
4569;SDS011;2297;51.442;6.996;2023-05-10T14:10:54;6.10;;;4.40;;
4569;SDS011;2297;51.442;6.996;2023-05-10T14:13:22;6.80;;;3.95;;
4569;SDS011;2297;51.442;6.996;2023-05-10T14:15:49;4.82;;;2.97;;
4569;SDS011;2297;51.442;6.996;2023-05-10T14:18:15;6.47;;;3.80;;
4569;SDS011;2297;51.442;6.996;2023-05-10T14:20:42;7.70;;;4.47;;
4569;SDS011;2297;51.442;6.996;2023-05-10T14:23:09;12.82;;;4.82;;
4569;SDS011;2297;51.442;6.996;2023-05-10T14:25:35;10.88;;;7.40;;
4569;SDS011;2297;51.442;6.996;2023-05-10T14:28:04;11.40;;;6.75;;
4569;SDS011;2297;51.442;6.996;2023-05-10T14:30:31;8.23;;;5.18;;
4569;SDS011;2297;51.442;6.996;2023-05-10T14:32:59;9.00;;;5.65;;
4569;SDS011;2297;51.442;6.996;2023-05-10T14:35:26;9.98;;;6.05;;
4569;SDS011;2297;51.442;6.996;2023-05-10T14:37:53;9.82;;;7.03;;
4569;SDS011;2297;51.442;6.996;2023-05-10T14:40:20;12.13;;;6.85;;
4569;SDS011;2297;51.442;6.996;2023-05-10T14:42:46;8.57;;;6.20;;
4569;SDS011;2297;51.442;6.996;2023-05-10T14:45:14;9.13;;;6.30;;
4569;SDS011;2297;51.442;6.996;2023-05-10T14:47:41;7.22;;;5.65;;
4569;SDS011;2297;51.442;6.996;2023-05-10T14:50:08;10.13;;;7.90;;
4569;SDS011;2297;51.442;6.996;2023-05-10T14:52:34;8.90;;;6.57;;
4569;SDS011;2297;51.442;6.996;2023-05-10T14:55:01;12.85;;;8.13;;
4569;SDS011;2297;51.442;6.996;2023-05-10T14:57:28;13.07;;;7.47;;
4569;SDS011;2297;51.442;6.996;2023-05-10T14:59:55;11.93;;;7.38;;
4569;SDS011;2297;51.442;6.996;2023-05-10T15:02:23;9.63;;;6.80;;
4569;SDS011;2297;51.442;6.996;2023-05-10T15:04:50;13.00;;;7.65;;
4569;SDS011;2297;51.442;6.996;2023-05-10T15:07:16;8.23;;;6.05;;
4569;SDS011;2297;51.442;6.996;2023-05-10T15:09:43;11.90;;;6.90;;
4569;SDS011;2297;51.442;6.996;2023-05-10T15:12:10;11.15;;;7.97;;
4569;SDS011;2297;51.442;6.996;2023-05-10T15:14:36;11.82;;;7.05;;
4569;SDS011;2297;51.442;6.996;2023-05-10T15:17:05;18.20;;;10.20;;
4569;SDS011;2297;51.442;6.996;2023-05-10T15:19:34;14.70;;;10.18;;
4569;SDS011;2297;51.442;6.996;2023-05-10T15:22:01;12.30;;;8.05;;
4569;SDS011;2297;51.442;6.996;2023-05-10T15:24:27;13.20;;;9.65;;